Cottonwood Shores, Texas
Current Conditions -  °F | °C
As of 6:15 PM on Friday 19 Dec 2014 (Local Time) from KDZB Reporting Station
Overcast Overcast  
Wind Chill: 51°   Ceiling: 1600
Heat Index: 51°   Visibility: 10mi
Dew Point: 45°   Wind: 6mph
Humidity: 78%   Direction: 360°N
Pressure: 30.15"   Gusts: NA
Location:  30.5928°N, 98.3476°W
Report Text: KDZB 200015Z AUTO 36005KT 10SM OVC016 11/07 A3015 RMK AO2 T01070070
Loading
Personal Weather Stations






























Interactive Weather Map New forecast layout! Learn more

10-Day Weather Forecast

Advertisements
Track Severe Weather on mobile